Time;durP1;ratioP1;P1;durP2;ratioP2;P2;SDS_P1;SDS_P2;PMS_P1;PMS_P2;Temp;Humidity;BMP_temperature;BMP_pressure;BME280_temperature;BME280_humidity;BME280_pressure;Samples;Min_cycle;Max_cycle;Signal;HPM_P1;HPM_P2
2024/02/16 07:28:43;;;;;;;5.03;2.25;;;;;;;7.73;87.03;96521.59;2111727;27;20947;-68
2024/02/16 07:29:45;;;;;;;7.00;2.17;;;;;;;7.65;87.12;96524.47;2111580;28;20191;-69
2024/02/16 07:35:47;;;;;;;9.20;2.10;;;;;;;8.24;85.43;96519.75;2085099;27;20553;-69
2024/02/16 07:36:48;;;;;;;4.00;2.10;;;;;;;8.37;84.85;96508.00;2077051;28;20217;-69
2024/02/16 07:37:53;;;;;;;7.97;2.35;;;;;;;8.63;84.37;96530.47;2079040;28;20201;-69
2024/02/16 07:38:55;;;;;;;44.47;3.13;;;;;;;8.66;84.09;96525.13;2096630;28;20244;-69
2024/02/16 07:39:57;;;;;;;9.00;2.05;;;;;;;8.92;83.53;96528.44;2093287;28;20737;-69
2024/02/16 07:40:59;;;;;;;8.30;1.92;;;;;;;9.19;82.56;96528.25;2093654;28;20196;-69
2024/02/16 07:42:00;;;;;;;5.20;2.30;;;;;;;9.52;80.88;96534.72;2093314;28;20293;-67
2024/02/16 07:43:03;;;;;;;9.25;2.60;;;;;;;9.44;80.72;96525.47;2077759;28;20197;-67
2024/02/16 07:44:04;;;;;;;4.32;2.00;;;;;;;9.88;79.27;96521.00;2077630;28;20208;-67
2024/02/16 07:45:06;;;;;;;6.20;2.10;;;;;;;10.05;78.53;96512.47;2081346;28;20202;-67
2024/02/16 07:46:08;;;;;;;7.38;2.25;;;;;;;10.52;77.20;96522.50;2077128;28;20201;-67
2024/02/16 07:47:09;;;;;;;5.38;2.53;;;;;;;10.52;76.96;96526.91;2080508;28;20543;-67
2024/02/16 07:48:11;;;;;;;7.82;2.65;;;;;;;10.75;76.54;96526.69;2096245;28;20724;-67
2024/02/16 07:49:13;;;;;;;10.68;2.38;;;;;;;11.01;75.58;96526.31;2093945;28;20957;-67
2024/02/16 07:50:20;;;;;;;8.15;2.40;;;;;;;11.40;73.97;96526.16;2079796;28;20671;-67
2024/02/16 07:51:21;;;;;;;6.72;2.10;;;;;;;11.79;72.22;96526.81;2074034;28;20311;-67
2024/02/16 07:52:23;;;;;;;10.75;2.72;;;;;;;12.32;71.12;96526.75;2079772;28;20294;-67
2024/02/16 07:53:24;;;;;;;10.93;2.72;;;;;;;12.94;69.32;96526.84;2080847;28;20301;-67
2024/02/16 07:54:26;;;;;;;4.65;2.60;;;;;;;13.44;67.44;96524.91;2079682;28;20201;-67
2024/02/16 07:55:27;;;;;;;7.95;2.85;;;;;;;13.42;65.61;96525.94;2077288;28;20672;-67
2024/02/16 07:56:30;;;;;;;7.32;4.50;;;;;;;13.62;66.17;96532.66;2072219;28;20229;-67
2024/02/16 07:57:32;;;;;;;8.48;4.63;;;;;;;13.99;65.25;96539.19;2078168;28;20557;-67
2024/02/16 07:58:34;;;;;;;12.90;7.13;;;;;;;14.37;64.45;96535.16;2077352;28;20292;-67
2024/02/16 07:59:35;;;;;;;11.75;6.80;;;;;;;14.39;64.13;96533.28;2078010;28;20202;-67
2024/02/16 08:00:37;;;;;;;15.90;6.10;;;;;;;14.24;64.10;96536.88;2079371;28;20625;-67
2024/02/16 08:01:40;;;;;;;13.93;5.82;;;;;;;14.36;63.95;96529.06;2077409;28;20738;-67
2024/02/16 08:02:45;;;;;;;13.65;4.88;;;;;;;14.21;64.32;96522.13;2094994;28;20743;-67
2024/02/16 08:03:47;;;;;;;9.13;4.47;;;;;;;14.36;64.46;96531.69;2093076;28;20204;-69
2024/02/16 08:04:49;;;;;;;9.00;3.80;;;;;;;14.56;63.64;96539.28;2078631;28;20260;-68
2024/02/16 08:05:51;;;;;;;9.02;4.80;;;;;;;14.68;64.07;96536.75;2078695;28;20190;-68
2024/02/16 08:06:53;;;;;;;9.77;4.00;;;;;;;14.83;62.92;96524.44;2078980;28;20263;-68
2024/02/16 08:07:55;;;;;;;8.13;3.92;;;;;;;15.14;62.33;96534.75;2080503;28;20260;-68
2024/02/16 08:08:57;;;;;;;8.20;4.93;;;;;;;15.85;60.06;96524.84;2080567;28;20679;-69
2024/02/16 08:10:00;;;;;;;7.50;4.30;;;;;;;16.54;58.90;96534.19;2082478;28;20287;-68
2024/02/16 08:11:02;;;;;;;8.35;4.22;;;;;;;16.49;57.77;96531.88;2072515;28;20798;-68
2024/02/16 08:12:06;;;;;;;8.77;3.40;;;;;;;16.71;57.27;96536.47;2093162;28;20192;-69
2024/02/16 08:13:08;;;;;;;7.38;3.92;;;;;;;16.34;58.33;96536.44;2093485;28;20200;-68
2024/02/16 08:14:09;;;;;;;6.30;2.45;;;;;;;17.18;57.27;96530.53;2095522;28;20615;-68
2024/02/16 08:15:11;;;;;;;6.90;3.58;;;;;;;16.94;57.82;96537.50;2094178;28;20196;-69
2024/02/16 08:16:13;;;;;;;7.50;3.20;;;;;;;16.71;57.81;96544.41;2076840;28;20821;-68
2024/02/16 08:17:14;;;;;;;16.23;4.00;;;;;;;16.71;57.62;96546.16;2079098;28;20256;-68
2024/02/16 08:18:21;;;;;;;13.88;3.30;;;;;;;16.81;57.69;96542.78;2079037;28;20224;-69
2024/02/16 08:19:22;;;;;;;10.75;3.83;;;;;;;16.39;58.35;96539.59;2079489;28;20232;-69
2024/02/16 08:20:24;;;;;;;13.00;3.65;;;;;;;16.55;57.87;96533.25;2079636;28;20201;-69
2024/02/16 08:21:26;;;;;;;7.47;2.80;;;;;;;15.79;58.75;96539.22;2075669;28;20704;-69
2024/02/16 08:22:27;;;;;;;9.60;3.15;;;;;;;15.36;60.32;96552.59;2079585;28;20251;-69
2024/02/16 08:23:30;;;;;;;8.18;3.33;;;;;;;16.03;59.89;96549.06;2078788;28;20641;-69
2024/02/16 08:24:35;;;;;;;9.77;3.67;;;;;;;16.58;58.73;96556.75;2079545;28;20208;-69
2024/02/16 08:25:37;;;;;;;7.35;3.72;;;;;;;17.23;56.93;96560.06;2077807;28;20205;-69
2024/02/16 08:26:38;;;;;;;7.97;4.55;;;;;;;17.91;55.62;96553.25;2077930;28;20438;-69
2024/02/16 08:27:40;;;;;;;9.45;4.18;;;;;;;17.65;55.42;96555.22;2077932;28;20214;-69
2024/02/16 08:28:44;;;;;;;10.85;4.30;;;;;;;18.37;54.68;96548.94;2081261;28;20198;-69
2024/02/16 08:29:46;;;;;;;10.27;3.95;;;;;;;18.57;53.73;96550.00;2080068;28;20206;-69
2024/02/16 08:30:47;;;;;;;8.57;4.70;;;;;;;18.21;54.40;96551.91;2077927;28;20232;-70
2024/02/16 08:31:50;;;;;;;11.02;5.70;;;;;;;17.77;54.86;96551.66;2092592;28;20296;-70
2024/02/16 08:32:52;;;;;;;20.42;7.35;;;;;;;16.95;56.53;96554.16;2095285;28;20652;-70
2024/02/16 08:33:54;;;;;;;11.70;5.75;;;;;;;16.37;57.68;96552.03;2078423;28;20199;-70
2024/02/16 08:34:58;;;;;;;12.32;6.00;;;;;;;15.97;58.91;96562.66;2077957;28;20654;-70
2024/02/16 08:36:00;;;;;;;11.02;4.55;;;;;;;16.01;58.28;96558.91;2077118;28;20249;-70
2024/02/16 08:37:01;;;;;;;8.95;4.40;;;;;;;16.07;58.52;96550.56;2094019;28;20603;-71
2024/02/16 08:38:03;;;;;;;10.73;4.38;;;;;;;16.60;57.95;96554.84;2093658;28;20755;-71
2024/02/16 08:39:05;;;;;;;7.55;4.00;;;;;;;17.04;56.22;96548.22;2077868;28;20795;-71
2024/02/16 08:40:07;;;;;;;6.47;3.60;;;;;;;17.26;55.93;96565.97;2078109;28;20197;-72
2024/02/16 08:41:09;;;;;;;6.43;3.00;;;;;;;17.42;54.96;96564.84;2078158;28;20228;-71
2024/02/16 08:42:14;;;;;;;4.97;2.20;;;;;;;17.28;54.57;96564.06;2080523;28;20894;-72
2024/02/16 08:43:15;;;;;;;6.90;3.55;;;;;;;16.92;55.55;96562.28;2078407;28;20249;-71
2024/02/16 08:44:18;;;;;;;8.07;3.38;;;;;;;16.29;57.04;96557.84;2097409;28;20829;-71
2024/02/16 08:45:20;;;;;;;11.40;3.25;;;;;;;15.83;58.67;96563.59;2093530;28;20193;-71
2024/02/16 08:46:22;;;;;;;6.15;3.03;;;;;;;15.30;59.48;96559.13;2076691;28;20842;-72
2024/02/16 08:47:24;;;;;;;5.78;2.88;;;;;;;15.58;58.29;96566.97;2070323;28;20767;-72
2024/02/16 08:48:26;;;;;;;7.53;3.67;;;;;;;15.47;59.72;96562.44;2088429;28;20205;-70
2024/02/16 08:49:28;;;;;;;8.00;3.83;;;;;;;15.70;59.04;96549.56;2088421;28;20196;-71
2024/02/16 08:50:30;;;;;;;7.50;3.40;;;;;;;15.64;59.46;96556.91;2073541;28;20290;-70
2024/02/16 08:51:32;;;;;;;5.40;2.97;;;;;;;15.40;59.58;96561.16;2073637;28;20229;-71
2024/02/16 08:52:34;;;;;;;7.32;2.88;;;;;;;15.21;59.17;96545.72;2075077;28;20256;-71
2024/02/16 08:53:36;;;;;;;7.78;3.42;;;;;;;15.44;58.91;96550.34;2074545;28;20202;-71
2024/02/16 08:54:37;;;;;;;8.70;2.65;;;;;;;15.29;59.25;96562.69;2073538;28;20343;-71
2024/02/16 08:55:40;;;;;;;6.70;2.40;;;;;;;15.60;59.23;96562.47;2072331;28;20559;-71
2024/02/16 08:56:41;;;;;;;5.43;2.22;;;;;;;15.32;59.82;96562.47;2071896;28;20225;-71
2024/02/16 08:57:43;;;;;;;9.25;3.03;;;;;;;15.30;59.76;96564.38;2073978;28;20202;-71
2024/02/16 08:58:44;;;;;;;7.57;2.70;;;;;;;15.14;60.60;96563.69;2072579;28;20205;-71
2024/02/16 08:59:46;;;;;;;8.20;3.75;;;;;;;14.88;61.01;96553.06;2073759;28;20243;-71
2024/02/16 09:00:49;;;;;;;9.60;3.40;;;;;;;14.74;61.15;96564.44;2072284;28;20221;-71
2024/02/16 09:01:51;;;;;;;7.13;3.05;;;;;;;14.81;61.63;96565.72;2071781;28;21167;-71
2024/02/16 09:02:53;;;;;;;7.30;2.90;;;;;;;14.74;61.58;96564.44;2073089;28;20200;-71
2024/02/16 09:03:55;;;;;;;6.90;3.10;;;;;;;14.72;61.31;96576.81;2074369;28;20650;-70
2024/02/16 09:04:58;;;;;;;7.88;2.95;;;;;;;14.68;61.49;96567.47;2073604;28;20206;-71
2024/02/16 09:06:00;;;;;;;10.95;2.97;;;;;;;14.86;61.20;96539.16;2072567;28;20286;-71
2024/02/16 09:07:02;;;;;;;5.35;2.63;;;;;;;15.35;60.64;96569.34;2073452;28;20209;-71
2024/02/16 09:08:05;;;;;;;8.52;3.33;;;;;;;15.97;59.52;96566.16;2088993;28;20228;-71
2024/02/16 09:09:07;;;;;;;6.93;3.20;;;;;;;16.35;58.09;96561.81;2088662;28;20967;-71
2024/02/16 09:10:09;;;;;;;9.77;3.75;;;;;;;16.68;57.21;96564.84;2075379;28;20695;-71
2024/02/16 09:11:11;;;;;;;9.55;3.38;;;;;;;16.41;57.40;96550.03;2070726;28;20211;-70
2024/02/16 09:12:12;;;;;;;6.35;2.42;;;;;;;16.16;58.59;96564.88;2071660;28;20272;-71
2024/02/16 09:13:14;;;;;;;4.75;2.50;;;;;;;16.45;58.14;96562.88;2074228;28;20202;-71
2024/02/16 09:14:15;;;;;;;7.57;2.97;;;;;;;16.41;57.50;96561.41;2069065;28;20229;-71
2024/02/16 09:15:17;;;;;;;4.47;1.98;;;;;;;16.38;57.51;96551.09;2068997;28;20283;-71
2024/02/16 09:16:19;;;;;;;5.75;2.50;;;;;;;16.64;57.00;96551.88;2066967;28;20235;-71
2024/02/16 09:17:24;;;;;;;8.57;3.03;;;;;;;16.72;56.51;96550.50;2088265;28;20232;-71
2024/02/16 09:18:26;;;;;;;10.43;3.83;;;;;;;16.98;56.48;96560.06;2086469;28;20640;-71
2024/02/16 09:19:27;;;;;;;9.80;4.15;;;;;;;16.92;56.28;96570.22;2073300;28;20288;-71
2024/02/16 09:20:29;;;;;;;5.07;2.80;;;;;;;16.80;56.52;96575.38;2072407;28;20238;-71
2024/02/16 09:21:31;;;;;;;5.97;3.50;;;;;;;17.36;55.87;96571.41;2073704;28;20226;-71
2024/02/16 09:22:33;;;;;;;4.50;2.60;;;;;;;17.36;55.86;96567.97;2089289;28;20323;-71
2024/02/16 09:23:39;;;;;;;4.78;2.60;;;;;;;18.06;54.09;96574.22;2087408;28;20211;-71
2024/02/16 09:24:41;;;;;;;7.00;2.55;;;;;;;18.34;53.50;96577.41;2073390;28;20209;-70
2024/02/16 09:25:43;;;;;;;6.22;2.33;;;;;;;18.34;53.50;96577.41;2071387;28;20633;-70
2024/02/16 09:26:48;;;;;;;8.35;2.80;;;;;;;18.34;53.50;96577.41;2072844;28;20218;-70
2024/02/16 09:27:49;;;;;;;4.70;2.53;;;;;;;20.64;49.79;96581.72;2072562;28;20205;-70
2024/02/16 09:28:53;;;;;;;21.40;9.93;;;;;;;-145.49;100.00;55703.94;2071121;28;20230;-71
2024/02/16 09:29:55;;;;;;;58.50;28.75;;;;;;;-145.49;100.00;55703.94;2072690;28;20218;-71
2024/02/16 09:30:57;;;;;;;16.08;7.97;;;;;;;-145.49;100.00;55703.94;2073543;28;20247;-71
2024/02/16 09:31:59;;;;;;;14.73;4.50;;;;;;;-145.49;100.00;55703.94;2072908;28;20229;-72
2024/02/16 09:33:04;;;;;;;5.63;2.53;;;;;;;-145.49;100.00;55703.94;2073775;28;20714;-72
2024/02/16 09:34:06;;;;;;;3.88;2.60;;;;;;;-145.49;100.00;55703.94;2073167;28;20209;-72
2024/02/16 09:35:08;;;;;;;8.77;2.50;;;;;;;-145.49;100.00;55703.94;2074733;28;20283;-72
2024/02/16 09:36:10;;;;;;;5.40;2.15;;;;;;;-145.49;100.00;55703.94;2072472;28;20230;-72
2024/02/16 09:37:12;;;;;;;6.28;1.90;;;;;;;-145.49;100.00;55703.94;2072197;28;20207;-72
2024/02/16 09:38:14;;;;;;;3.92;2.00;;;;;;;-145.49;100.00;55703.94;2070457;28;20202;-72
2024/02/16 09:39:16;;;;;;;7.82;2.50;;;;;;;-145.49;100.00;55703.94;2073550;28;20206;-72
2024/02/16 09:40:18;;;;;;;3.40;1.80;;;;;;;-145.49;100.00;55703.94;2087003;28;20284;-74
2024/02/16 09:41:20;;;;;;;5.00;2.33;;;;;;;-145.49;100.00;55703.94;2088383;28;20223;-72
2024/02/16 09:42:26;;;;;;;3.80;1.70;;;;;;;-145.49;100.00;55703.94;2074973;28;20460;-72
2024/02/16 09:43:29;;;;;;;5.70;2.30;;;;;;;-145.49;100.00;55703.94;2071038;28;20875;-72
2024/02/16 09:44:35;;;;;;;3.50;1.42;;;;;;;-145.49;100.00;55703.94;2073004;28;20281;-72
2024/02/16 09:45:37;;;;;;;2.75;1.50;;;;;;;-145.49;100.00;55703.94;2073409;28;20198;-72
2024/02/16 09:46:38;;;;;;;3.17;1.60;;;;;;;-145.49;100.00;55703.94;2088322;28;20273;-71
2024/02/16 09:47:46;;;;;;;4.47;1.83;;;;;;;20.64;49.79;96581.72;2081861;28;20189;-70
2024/02/16 09:49:02;;;;;;;3.63;1.50;;;;;;;19.04;48.65;96608.06;2072340;28;20201;-70
2024/02/16 09:50:05;;;;;;;2.38;1.30;;;;;;;18.40;49.28;96613.94;2083927;28;20216;-70
2024/02/16 09:51:08;;;;;;;4.82;1.92;;;;;;;18.28;50.03;96615.69;2073853;28;20211;-70
2024/02/16 09:52:13;;;;;;;4.05;1.83;;;;;;;17.76;50.91;96608.09;2066090;28;20289;-70
2024/02/16 09:53:15;;;;;;;4.03;1.70;;;;;;;17.53;51.14;96615.03;2073968;28;20203;-70
2024/02/16 09:54:16;;;;;;;3.97;1.70;;;;;;;17.13;52.12;96613.50;2070409;28;20205;-69
2024/02/16 09:55:18;;;;;;;3.42;1.30;;;;;;;16.94;52.75;96618.44;2071587;28;20202;-70
2024/02/16 09:56:20;;;;;;;5.03;2.30;;;;;;;16.83;53.55;96613.84;2069683;28;20218;-70
2024/02/16 09:57:22;;;;;;;7.00;2.70;;;;;;;16.44;54.81;96621.81;2072541;28;20539;-70
2024/02/16 09:58:23;;;;;;;4.07;2.00;;;;;;;16.46;54.77;96619.06;2070816;28;20652;-70
2024/02/16 09:59:25;;;;;;;5.55;2.20;;;;;;;16.19;55.46;96600.72;2072063;28;20258;-70
2024/02/16 10:00:26;;;;;;;5.15;2.33;;;;;;;15.95;56.05;96604.91;2073209;28;20216;-71
2024/02/16 10:01:29;;;;;;;4.45;1.95;;;;;;;16.02;55.32;96607.97;2071142;28;20227;-71
2024/02/16 10:02:45;;;;;;;2.85;1.50;;;;;;;15.91;55.85;96621.00;2089384;28;20208;-72
2024/02/16 10:03:47;;;;;;;6.00;2.25;;;;;;;15.81;56.62;96603.19;2083428;28;20573;-71
2024/02/16 10:04:49;;;;;;;3.35;2.10;;;;;;;15.83;57.47;96622.38;2072287;28;20665;-71
2024/02/16 10:05:52;;;;;;;5.93;2.05;;;;;;;15.60;58.18;96615.09;2072288;28;20202;-71
2024/02/16 10:06:54;;;;;;;4.85;2.00;;;;;;;15.64;57.42;96620.09;2068198;28;20276;-71
2024/02/16 10:07:57;;;;;;;3.35;1.52;;;;;;;15.57;57.44;96618.78;2070996;28;20198;-71
2024/02/16 10:08:58;;;;;;;4.25;2.08;;;;;;;15.39;57.34;96598.91;2071634;28;20228;-70
2024/02/16 10:10:00;;;;;;;5.13;1.90;;;;;;;15.52;57.72;96616.44;2084828;28;20208;-70
2024/02/16 10:11:05;;;;;;;9.45;2.35;;;;;;;15.36;58.02;96615.75;2085854;28;20216;-70
2024/02/16 10:12:07;;;;;;;3.90;1.80;;;;;;;15.58;58.20;96620.47;2074158;28;20195;-70
2024/02/16 10:13:08;;;;;;;4.07;2.22;;;;;;;15.70;58.53;96616.19;2071442;28;20213;-70
2024/02/16 10:14:11;;;;;;;4.30;2.30;;;;;;;15.65;58.42;96624.38;2072557;28;20743;-70
2024/02/16 10:15:19;;;;;;;8.95;1.85;;;;;;;15.54;58.46;96623.41;2072113;28;20282;-71
2024/02/16 10:16:21;;;;;;;6.25;2.90;;;;;;;15.50;58.01;96605.19;2071308;28;20663;-70
2024/02/16 10:17:22;;;;;;;5.60;1.50;;;;;;;15.53;58.08;96627.84;2073032;28;20197;-70
2024/02/16 10:18:27;;;;;;;3.40;1.70;;;;;;;15.60;57.93;96605.41;2071512;28;20198;-70
2024/02/16 10:19:39;;;;;;;6.75;1.98;;;;;;;15.77;57.35;96614.84;2071646;28;20206;-70
2024/02/16 10:20:44;;;;;;;5.80;2.13;;;;;;;15.73;58.43;96615.13;2071248;28;20236;-71
2024/02/16 10:21:45;;;;;;;5.57;2.15;;;;;;;15.76;58.10;96630.75;2066897;28;20218;-71
2024/02/16 10:22:47;;;;;;;5.07;2.15;;;;;;;15.75;57.86;96629.06;2087700;28;20628;-70
2024/02/16 10:24:01;;;;;;;3.75;2.33;;;;;;;15.71;58.01;96623.16;2088136;28;20293;-70
2024/02/16 10:25:11;;;;;;;5.40;2.00;;;;;;;15.66;58.36;96626.06;2074813;28;20562;-70
2024/02/16 10:26:13;;;;;;;4.55;2.55;;;;;;;15.79;58.61;96631.38;2070294;28;20226;-69
2024/02/16 10:27:16;;;;;;;3.40;1.70;;;;;;;15.66;58.64;96625.25;2072043;28;20604;-69
2024/02/16 10:28:21;;;;;;;4.68;2.08;;;;;;;15.55;58.42;96620.66;2071688;28;20202;-69
2024/02/16 10:29:26;;;;;;;4.10;1.83;;;;;;;15.52;57.15;96632.22;2072219;28;20225;-69
2024/02/16 10:30:33;;;;;;;4.13;1.67;;;;;;;15.66;57.02;96635.75;2072230;28;20201;-69
2024/02/16 10:31:34;;;;;;;4.07;2.10;;;;;;;15.63;56.18;96635.94;2071534;28;20218;-69
2024/02/16 10:32:39;;;;;;;4.55;1.65;;;;;;;15.75;56.93;96639.59;2071889;28;20203;-69
2024/02/16 10:33:43;;;;;;;3.22;1.73;;;;;;;15.66;57.25;96628.69;2071628;28;20248;-69
2024/02/16 10:34:47;;;;;;;3.47;2.13;;;;;;;15.64;57.27;96627.97;2070898;28;20580;-69
2024/02/16 10:35:51;;;;;;;4.68;1.60;;;;;;;15.82;57.12;96639.09;2073060;28;20276;-70
2024/02/16 10:36:53;;;;;;;3.90;1.63;;;;;;;15.83;56.99;96638.16;2087815;28;20248;-70
2024/02/16 10:37:58;;;;;;;2.60;1.23;;;;;;;15.61;57.14;96636.06;2080152;28;20201;-71
2024/02/16 10:39:04;;;;;;;4.30;2.10;;;;;;;15.44;57.41;96621.38;2080239;28;20236;-70
2024/02/16 10:40:08;;;;;;;4.40;1.80;;;;;;;15.51;57.41;96627.06;2086762;28;20256;-70
2024/02/16 10:41:12;;;;;;;7.82;2.20;;;;;;;15.63;57.76;96646.47;2072116;28;20558;-70
2024/02/16 10:42:15;;;;;;;3.67;1.40;;;;;;;15.76;57.68;96643.91;2087641;28;20235;-71
2024/02/16 10:43:18;;;;;;;3.08;1.85;;;;;;;15.74;57.34;96637.91;2086813;28;20836;-71
2024/02/16 10:44:20;;;;;;;4.57;1.58;;;;;;;15.56;57.19;96614.47;2074255;28;20206;-71
2024/02/16 10:45:23;;;;;;;5.43;1.90;;;;;;;15.77;58.08;96648.22;2071322;28;20214;-71
2024/02/16 10:46:26;;;;;;;6.05;1.60;;;;;;;15.82;57.77;96646.16;2070365;28;20221;-71
2024/02/16 10:47:28;;;;;;;4.82;1.90;;;;;;;15.76;57.57;96644.75;2070328;28;20270;-70
2024/02/16 10:48:29;;;;;;;4.68;1.70;;;;;;;15.87;57.67;96649.34;2070866;28;20213;-70
2024/02/16 10:49:32;;;;;;;5.00;1.60;;;;;;;15.99;57.42;96645.88;2072090;28;20201;-71
2024/02/16 10:50:36;;;;;;;4.03;1.42;;;;;;;16.33;57.50;96650.69;2091646;28;20209;-71
2024/02/16 10:51:47;;;;;;;3.17;1.58;;;;;;;16.33;58.06;96648.06;2081586;28;20220;-71
2024/02/16 10:52:57;;;;;;;8.45;2.05;;;;;;;16.42;57.95;96650.06;2074858;28;20201;-71
2024/02/16 10:54:08;;;;;;;4.90;2.05;;;;;;;16.57;57.22;96655.22;2083114;28;20204;-71
2024/02/16 10:55:11;;;;;;;10.93;2.35;;;;;;;16.13;58.13;96633.59;2076226;28;20240;-71
2024/02/16 10:56:16;;;;;;;5.97;1.55;;;;;;;15.82;58.92;96640.88;2060816;28;20196;-71
2024/02/16 10:57:18;;;;;;;6.40;2.00;;;;;;;16.29;58.92;96649.19;2070830;28;20207;-71
2024/02/16 10:58:21;;;;;;;4.53;1.67;;;;;;;16.20;59.07;96618.22;2062792;28;20719;-71
2024/02/16 10:59:28;;;;;;;4.57;1.33;;;;;;;16.21;59.23;96614.63;2061900;28;20210;-71
2024/02/16 11:00:33;;;;;;;7.13;1.42;;;;;;;16.51;59.05;96651.22;2064067;28;20883;-71
2024/02/16 11:01:39;;;;;;;5.40;1.83;;;;;;;16.55;58.77;96642.16;2066287;28;20255;-71
2024/02/16 11:02:56;;;;;;;8.18;1.73;;;;;;;16.53;58.94;96622.97;2065032;28;20794;-72
2024/02/16 11:04:03;;;;;;;4.40;1.48;;;;;;;16.59;59.41;96626.97;2066128;28;20273;-71
2024/02/16 11:05:08;;;;;;;2.70;1.52;;;;;;;16.75;59.60;96638.13;2074513;28;20213;-71
2024/02/16 11:06:17;;;;;;;5.82;1.33;;;;;;;16.74;59.42;96633.81;2075580;28;20577;-71
2024/02/16 11:07:20;;;;;;;3.10;1.50;;;;;;;16.85;59.30;96642.75;2066646;28;20494;-71
2024/02/16 11:08:28;;;;;;;8.70;2.30;;;;;;;16.86;59.54;96641.81;2072301;28;20194;-69
2024/02/16 11:09:39;;;;;;;3.60;1.77;;;;;;;16.94;59.23;96645.63;2071685;28;20624;-69
2024/02/16 11:10:53;;;;;;;5.05;1.75;;;;;;;16.83;59.51;96640.22;2071230;28;20632;-68
2024/02/16 11:11:59;;;;;;;4.63;1.67;;;;;;;17.20;58.87;96648.19;2070195;28;20304;-68
2024/02/16 11:13:04;;;;;;;6.30;1.80;;;;;;;17.07;58.82;96635.03;2071952;28;20213;-68
2024/02/16 11:14:15;;;;;;;5.20;1.70;;;;;;;17.14;59.12;96631.03;2071265;28;20210;-68
2024/02/16 11:15:26;;;;;;;4.88;2.13;;;;;;;17.33;58.68;96642.91;2070490;28;20617;-68
2024/02/16 11:16:28;;;;;;;2.90;1.50;;;;;;;17.78;57.62;96642.31;2071290;28;20222;-69
2024/02/16 11:17:33;;;;;;;8.40;2.20;;;;;;;18.01;57.21;96635.31;2070809;28;20670;-69
2024/02/16 11:18:46;;;;;;;6.32;1.85;;;;;;;18.37;56.39;96632.66;2080873;28;20197;-69
2024/02/16 11:19:49;;;;;;;10.02;2.25;;;;;;;18.79;55.50;96627.63;2083933;28;20196;-70
2024/02/16 11:20:52;;;;;;;4.28;2.38;;;;;;;19.40;54.32;96635.22;2071543;28;20298;-70
2024/02/16 11:22:07;;;;;;;4.65;1.85;;;;;;;20.03;53.01;96639.00;2070845;28;20296;-69
2024/02/16 11:23:09;;;;;;;5.68;1.60;;;;;;;20.36;52.92;96631.84;2071248;28;20202;-70
2024/02/16 11:24:14;;;;;;;6.40;2.50;;;;;;;20.09;52.01;96634.97;2071525;28;20206;-69
2024/02/16 11:25:15;;;;;;;3.80;1.92;;;;;;;19.39;53.77;96641.47;2072084;28;20233;-69
2024/02/16 11:26:17;;;;;;;7.10;1.65;;;;;;;19.38;53.79;96633.66;2072177;28;20238;-69
2024/02/16 11:27:19;;;;;;;3.20;2.05;;;;;;;19.07;54.32;96633.44;2072037;28;20194;-69
2024/02/16 11:28:23;;;;;;;12.70;1.88;;;;;;;18.51;56.11;96610.44;2071043;28;20198;-69
2024/02/16 11:29:25;;;;;;;8.57;2.30;;;;;;;18.68;57.47;96638.25;2072126;28;20207;-69
2024/02/16 11:30:27;;;;;;;17.67;3.00;;;;;;;17.95;58.91;96633.13;2071046;28;20317;-69
2024/02/16 11:31:28;;;;;;;13.07;2.53;;;;;;;17.75;59.80;96635.44;2070460;28;20229;-69
2024/02/16 11:32:34;;;;;;;9.55;2.53;;;;;;;17.86;59.42;96636.44;2074049;28;20318;-69
2024/02/16 11:33:35;;;;;;;6.90;1.80;;;;;;;17.56;59.29;96635.97;2071882;28;20264;-69
2024/02/16 11:34:38;;;;;;;5.15;2.17;;;;;;;17.37;60.21;96627.66;2069612;28;20344;-69
2024/02/16 11:35:39;;;;;;;6.60;2.30;;;;;;;17.11;61.15;96633.88;2071950;28;20242;-69
2024/02/16 11:36:41;;;;;;;11.70;2.50;;;;;;;17.52;60.84;96638.91;2072170;28;20869;-69
2024/02/16 11:37:45;;;;;;;8.95;2.03;;;;;;;17.44;61.38;96642.13;2072847;28;20572;-69
2024/02/16 11:38:46;;;;;;;6.95;1.92;;;;;;;17.55;61.09;96639.53;2069619;28;20199;-69
2024/02/16 11:39:55;;;;;;;5.82;1.60;;;;;;;17.30;60.48;96620.19;2085704;28;20208;-69
2024/02/16 11:40:58;;;;;;;10.40;1.90;;;;;;;17.35;60.30;96632.25;2076924;28;20197;-69
2024/02/16 11:42:05;;;;;;;7.47;2.45;;;;;;;17.39;60.47;96628.41;2070888;28;20321;-69
2024/02/16 11:43:06;;;;;;;6.70;2.63;;;;;;;17.54;60.40;96632.56;2071431;28;21026;-69
2024/02/16 11:44:08;;;;;;;5.15;1.85;;;;;;;17.44;60.52;96628.91;2071155;28;20214;-69
2024/02/16 11:45:12;;;;;;;7.43;2.22;;;;;;;17.49;60.55;96633.88;2071201;28;20209;-69
2024/02/16 11:46:16;;;;;;;6.72;1.83;;;;;;;17.60;60.52;96636.56;2070117;28;20205;-69
2024/02/16 11:47:25;;;;;;;8.48;1.83;;;;;;;17.38;60.53;96630.22;2070378;28;20248;-69
2024/02/16 11:48:31;;;;;;;8.15;2.65;;;;;;;17.39;61.13;96638.97;2070082;28;20234;-69
2024/02/16 11:49:33;;;;;;;5.85;1.83;;;;;;;17.32;60.46;96645.63;2071293;28;20202;-69
2024/02/16 11:50:35;;;;;;;6.88;2.00;;;;;;;17.37;60.51;96640.88;2071753;28;20206;-69
2024/02/16 11:51:37;;;;;;;8.38;2.30;;;;;;;17.44;59.93;96636.84;2070719;28;20230;-69
2024/02/16 11:52:39;;;;;;;8.23;1.75;;;;;;;17.48;59.82;96635.66;2071646;28;20690;-69
2024/02/16 11:53:41;;;;;;;9.45;1.90;;;;;;;18.25;57.97;96637.09;2072256;28;20244;-70
2024/02/16 11:54:45;;;;;;;6.45;2.25;;;;;;;18.71;56.96;96638.00;2073137;28;20419;-70
2024/02/16 11:55:48;;;;;;;6.18;1.83;;;;;;;18.44;57.19;96631.25;2073757;28;20202;-69
2024/02/16 11:56:52;;;;;;;6.13;2.05;;;;;;;18.59;57.89;96645.09;2069715;28;20222;-71
2024/02/16 11:57:56;;;;;;;8.18;2.35;;;;;;;18.87;56.75;96624.41;2070852;28;20618;-71
2024/02/16 11:58:58;;;;;;;12.48;2.30;;;;;;;18.40;57.35;96638.56;2085598;28;20197;-71
2024/02/16 12:00:03;;;;;;;7.10;2.15;;;;;;;18.52;57.71;96638.56;2080236;28;20198;-71
2024/02/16 12:01:10;;;;;;;5.22;2.40;;;;;;;18.53;57.81;96642.91;2070511;28;20283;-70
2024/02/16 12:02:21;;;;;;;9.18;2.40;;;;;;;18.42;57.67;96633.16;2071841;28;20555;-70
2024/02/16 12:03:24;;;;;;;6.85;2.00;;;;;;;18.84;56.91;96635.22;2072512;28;20728;-71
2024/02/16 12:04:27;;;;;;;4.70;1.60;;;;;;;18.71;57.50;96643.28;2071823;28;20194;-71
2024/02/16 12:05:29;;;;;;;5.38;2.15;;;;;;;18.13;58.33;96638.84;2070470;28;20206;-71
2024/02/16 12:06:31;;;;;;;4.15;1.60;;;;;;;17.90;59.13;96635.25;2072094;28;20885;-71
2024/02/16 12:07:37;;;;;;;4.38;1.70;;;;;;;17.85;59.92;96624.19;2073014;28;20194;-70
2024/02/16 12:08:38;;;;;;;14.05;2.10;;;;;;;18.01;60.10;96637.97;2088554;28;20208;-70
2024/02/16 12:09:40;;;;;;;8.85;2.22;;;;;;;17.61;60.53;96630.31;2078464;28;20852;-70
2024/02/16 12:10:42;;;;;;;5.93;1.63;;;;;;;17.57;60.98;96637.66;2063116;28;20227;-71
2024/02/16 12:11:44;;;;;;;8.57;2.30;;;;;;;17.52;61.24;96634.50;2069519;28;20222;-70
2024/02/16 12:12:47;;;;;;;5.43;2.20;;;;;;;17.49;61.81;96639.16;2072332;28;20199;-71
2024/02/16 12:13:50;;;;;;;5.80;2.10;;;;;;;17.25;61.93;96640.78;2072251;28;20206;-70
2024/02/16 12:14:53;;;;;;;4.85;1.80;;;;;;;17.11;62.12;96648.88;2086326;28;20206;-70
2024/02/16 12:15:57;;;;;;;12.25;2.97;;;;;;;16.85;63.29;96642.75;2086105;28;20202;-70
2024/02/16 12:16:59;;;;;;;7.35;1.90;;;;;;;16.86;64.01;96636.53;2071836;28;20226;-70
2024/02/16 12:18:01;;;;;;;11.82;2.67;;;;;;;16.93;64.20;96648.38;2070811;28;20218;-70
2024/02/16 12:19:04;;;;;;;11.70;2.40;;;;;;;16.94;63.85;96647.44;2070512;28;20194;-70
2024/02/16 12:20:15;;;;;;;14.65;2.00;;;;;;;16.70;64.06;96639.41;2072866;28;20213;-70
2024/02/16 12:21:19;;;;;;;8.63;1.95;;;;;;;16.69;64.51;96643.00;2070105;28;20199;-70
2024/02/16 12:22:21;;;;;;;10.55;2.20;;;;;;;16.81;64.42;96650.03;2071194;28;20202;-70
2024/02/16 12:23:23;;;;;;;13.23;2.08;;;;;;;16.80;64.40;96653.66;2073852;28;20722;-70
2024/02/16 12:24:25;;;;;;;11.02;2.28;;;;;;;16.72;64.23;96638.34;2073943;28;20650;-71
2024/02/16 12:25:27;;;;;;;13.13;2.22;;;;;;;16.81;64.50;96642.97;2074290;28;20868;-70
2024/02/16 12:26:28;;;;;;;13.82;2.13;;;;;;;16.72;64.46;96648.03;2073283;28;20226;-70
2024/02/16 12:27:30;;;;;;;7.70;2.10;;;;;;;16.73;64.83;96652.38;2074835;28;20248;-70
2024/02/16 12:28:35;;;;;;;10.63;2.30;;;;;;;16.88;64.60;96650.47;2072937;28;20238;-70
2024/02/16 12:29:38;;;;;;;10.77;2.25;;;;;;;16.97;63.97;96652.47;2073225;28;20225;-70
2024/02/16 12:30:40;;;;;;;12.75;3.28;;;;;;;17.01;63.84;96655.75;2073460;28;20205;-70